Time;durP1;ratioP1;P1;durP2;ratioP2;P2;SDS_P1;SDS_P2;PMS_P1;PMS_P2;Temp;Humidity;BMP_temperature;BMP_pressure;BME280_temperature;BME280_humidity;BME280_pressure;Samples;Min_cycle;Max_cycle;Signal;HPM_P1;HPM_P2
2023/01/11 00:01:39;;;;;;;6.90;5.30;;;8.90;99.90;;;;;;5067177;28;20096;-49
2023/01/11 00:04:06;;;;;;;10.35;6.28;;;8.90;99.90;;;;;;5068667;28;20109;-57
2023/01/11 00:06:32;;;;;;;7.65;5.57;;;8.90;99.90;;;;;;5065401;28;20084;-58
2023/01/11 00:08:59;;;;;;;5.75;4.95;;;8.90;99.90;;;;;;5050676;28;20056;-59
2023/01/11 00:11:26;;;;;;;9.63;5.97;;;8.90;99.90;;;;;;5062470;28;20045;-58
2023/01/11 00:13:53;;;;;;;8.35;6.28;;;8.90;99.90;;;;;;5063138;28;20052;-55
2023/01/11 00:16:20;;;;;;;8.60;5.45;;;8.90;99.90;;;;;;5052821;28;20063;-59
2023/01/11 00:18:48;;;;;;;5.63;5.10;;;9.00;99.90;;;;;;5048847;28;20091;-59
2023/01/11 00:21:15;;;;;;;6.47;5.72;;;9.00;99.90;;;;;;5047409;28;20111;-59
2023/01/11 00:23:41;;;;;;;7.93;5.45;;;9.00;99.90;;;;;;5037705;28;20056;-57
2023/01/11 00:26:10;;;;;;;8.93;5.80;;;9.00;99.90;;;;;;5070702;28;20125;-58
2023/01/11 00:28:37;;;;;;;6.97;5.18;;;9.00;99.90;;;;;;5042407;28;20088;-55
2023/01/11 00:31:04;;;;;;;9.18;6.05;;;9.00;99.90;;;;;;5068253;28;20102;-58
2023/01/11 00:33:30;;;;;;;7.32;5.30;;;9.10;99.90;;;;;;5069653;28;20462;-57
2023/01/11 00:35:59;;;;;;;6.20;5.35;;;9.10;99.90;;;;;;5052521;28;20110;-56
2023/01/11 00:38:45;;;;;;;6.45;5.65;;;9.10;99.90;;;;;;5067020;28;20102;-57
2023/01/11 00:49:25;;;;;;;6.93;6.22;;;9.20;99.90;;;;;;5071465;28;20045;-53
2023/01/11 00:51:53;;;;;;;7.13;5.80;;;9.20;99.90;;;;;;5070957;28;20080;-58
2023/01/11 00:54:20;;;;;;;6.50;5.72;;;9.20;99.90;;;;;;5063131;28;20052;-57
2023/01/11 00:56:47;;;;;;;8.18;6.20;;;9.20;99.90;;;;;;5063114;28;20088;-57
2023/01/11 00:59:14;;;;;;;7.35;5.82;;;9.20;99.90;;;;;;5069130;28;20087;-54
2023/01/11 01:01:40;;;;;;;8.52;6.32;;;9.20;99.90;;;;;;5059143;28;20126;-56
2023/01/11 01:04:07;;;;;;;7.72;6.43;;;9.30;99.90;;;;;;5045589;28;20111;-57
2023/01/11 01:06:34;;;;;;;8.40;6.30;;;9.30;99.90;;;;;;5068243;28;20532;-57
2023/01/11 01:09:02;;;;;;;7.78;6.15;;;9.30;99.90;;;;;;5065451;28;20080;-56
2023/01/11 01:11:29;;;;;;;9.05;6.07;;;9.40;99.90;;;;;;5070946;28;20449;-56
2023/01/11 01:16:41;;;;;;;7.15;6.07;;;9.40;99.90;;;;;;5068152;28;20053;-60
2023/01/11 01:19:08;;;;;;;6.72;5.57;;;9.40;99.90;;;;;;5067728;28;20048;-58
2023/01/11 01:21:36;;;;;;;12.32;6.43;;;9.50;99.90;;;;;;5070402;28;20044;-58
2023/01/11 01:24:04;;;;;;;9.70;7.60;;;9.40;99.90;;;;;;5068371;28;20712;-57
2023/01/11 01:26:31;;;;;;;7.15;6.13;;;9.50;99.90;;;;;;5052000;28;20480;-58
2023/01/11 01:28:58;;;;;;;7.40;5.35;;;9.50;99.90;;;;;;5068110;28;20076;-58
2023/01/11 01:31:24;;;;;;;8.63;6.25;;;9.50;99.90;;;;;;5051590;28;20136;-57
2023/01/11 01:33:51;;;;;;;6.35;5.32;;;9.50;99.90;;;;;;5054873;28;20056;-54
2023/01/11 01:36:18;;;;;;;10.38;6.03;;;9.60;99.90;;;;;;5051261;28;20080;-55
2023/01/11 01:38:45;;;;;;;6.60;5.32;;;9.60;99.90;;;;;;5069812;28;20473;-58
2023/01/11 01:41:13;;;;;;;6.63;5.50;;;9.60;99.90;;;;;;5040642;28;20079;-46
2023/01/11 01:43:49;;;;;;;7.22;6.13;;;9.70;99.90;;;;;;5065957;28;20465;-58
2023/01/11 01:46:15;;;;;;;6.97;5.93;;;9.70;99.90;;;;;;5063202;28;20053;-58
2023/01/11 01:48:43;;;;;;;7.55;5.88;;;9.70;99.90;;;;;;5055653;28;20533;-58
2023/01/11 01:51:10;;;;;;;7.70;5.80;;;9.70;99.90;;;;;;5072903;28;20075;-54
2023/01/11 01:53:37;;;;;;;7.65;5.72;;;9.70;99.90;;;;;;5056145;28;20048;-60
2023/01/11 01:56:06;;;;;;;6.82;5.70;;;9.70;99.90;;;;;;5071203;28;20102;-57
2023/01/11 01:58:35;;;;;;;8.38;5.70;;;9.80;99.90;;;;;;5072342;28;20049;-59
2023/01/11 02:01:45;;;;;;;9.68;5.97;;;9.80;99.90;;;;;;5073360;28;20120;-59
2023/01/11 02:03:49;;;;;;;5.68;5.07;;;9.80;99.90;;;;;;5070615;28;20048;-50
2023/01/11 02:06:16;;;;;;;6.70;5.25;;;9.80;99.90;;;;;;5053412;28;20555;-59
2023/01/11 02:08:44;;;;;;;8.52;5.20;;;9.80;99.90;;;;;;5070831;28;20053;-58
2023/01/11 02:13:53;;;;;;;6.70;5.05;;;9.90;99.90;;;;;;5072055;28;20048;-54
2023/01/11 02:16:20;;;;;;;9.93;5.68;;;9.90;99.90;;;;;;5071867;28;20110;-59
2023/01/11 02:18:47;;;;;;;5.93;4.70;;;9.90;99.90;;;;;;5059262;28;20049;-56
2023/01/11 02:21:21;;;;;;;5.82;4.90;;;10.00;99.90;;;;;;5047337;28;20135;-58
2023/01/11 02:24:10;;;;;;;6.53;4.55;;;10.00;99.90;;;;;;5051224;28;20144;-57
2023/01/11 02:26:57;;;;;;;6.75;4.32;;;10.00;99.90;;;;;;5061640;28;20558;-58
2023/01/11 02:29:30;;;;;;;7.18;5.07;;;10.00;99.90;;;;;;5054042;28;20075;-61
2023/01/11 02:32:00;;;;;;;6.60;4.38;;;10.00;99.90;;;;;;5072599;28;20067;-60
2023/01/11 02:34:32;;;;;;;6.78;4.63;;;10.00;99.90;;;;;;5053459;28;20115;-59
2023/01/11 02:37:11;;;;;;;8.18;4.50;;;10.10;99.90;;;;;;5055430;28;20127;-59
2023/01/11 02:39:45;;;;;;;6.40;3.85;;;10.10;99.90;;;;;;5071678;28;20127;-58
2023/01/11 02:45:04;;;;;;;5.95;3.72;;;10.10;99.90;;;;;;5071127;28;20052;-60
2023/01/11 02:47:37;;;;;;;4.43;3.28;;;10.20;99.90;;;;;;5052278;28;20072;-54
2023/01/11 02:50:09;;;;;;;6.00;3.60;;;10.20;99.90;;;;;;5072343;28;20044;-53
2023/01/11 02:52:39;;;;;;;5.78;3.08;;;10.20;99.90;;;;;;5070825;28;20533;-59
2023/01/11 02:55:06;;;;;;;5.25;3.05;;;10.20;99.90;;;;;;5071137;28;20044;-61
2023/01/11 02:57:33;;;;;;;4.50;3.20;;;10.20;99.90;;;;;;5052633;28;20072;-60
2023/01/11 03:00:01;;;;;;;4.00;3.10;;;10.20;99.90;;;;;;5072081;28;20045;-53
2023/01/11 03:02:28;;;;;;;5.25;2.95;;;10.30;99.90;;;;;;5070763;28;20049;-59
2023/01/11 03:04:55;;;;;;;5.70;2.72;;;10.30;99.90;;;;;;5051458;28;20045;-58
2023/01/11 03:07:32;;;;;;;3.30;2.45;;;10.30;99.90;;;;;;5072981;28;20079;-58
2023/01/11 03:10:06;;;;;;;2.50;2.22;;;10.30;99.90;;;;;;5036086;28;20045;-59
2023/01/11 03:12:51;;;;;;;5.78;2.65;;;10.30;99.90;;;;;;5046891;28;20052;-58
2023/01/11 03:15:29;;;;;;;2.65;2.45;;;10.30;99.90;;;;;;5054975;28;20052;-60
2023/01/11 03:18:01;;;;;;;3.15;2.55;;;10.30;99.90;;;;;;5050134;28;20048;-62
2023/01/11 03:20:30;;;;;;;3.08;2.22;;;10.30;99.90;;;;;;5071523;28;20068;-60
2023/01/11 03:23:04;;;;;;;2.40;1.95;;;10.30;99.90;;;;;;5070885;28;20076;-57
2023/01/11 03:25:32;;;;;;;2.42;1.77;;;10.30;99.90;;;;;;5071748;28;20474;-47
2023/01/11 03:28:02;;;;;;;2.60;2.05;;;10.30;99.90;;;;;;5059880;28;20096;-59
2023/01/11 03:30:32;;;;;;;2.88;2.03;;;10.40;99.90;;;;;;5048951;28;20076;-59
2023/01/11 03:33:02;;;;;;;3.00;1.90;;;10.40;99.90;;;;;;5062981;28;20060;-58
2023/01/11 03:35:30;;;;;;;2.08;1.77;;;10.40;99.90;;;;;;5063167;28;20067;-53
2023/01/11 03:37:59;;;;;;;2.20;1.70;;;10.40;99.90;;;;;;5052028;28;20160;-59
2023/01/11 03:40:28;;;;;;;2.20;1.90;;;10.40;99.90;;;;;;5054873;28;20442;-58
2023/01/11 03:43:12;;;;;;;2.63;2.00;;;10.40;99.90;;;;;;5071518;28;20473;-61
2023/01/11 03:45:43;;;;;;;3.75;2.30;;;10.40;99.90;;;;;;5051941;28;20052;-59
2023/01/11 03:48:13;;;;;;;3.08;2.03;;;10.40;99.90;;;;;;5058371;28;20102;-59
2023/01/11 03:50:40;;;;;;;2.38;1.70;;;10.40;99.90;;;;;;5067472;28;20133;-57
2023/01/11 03:53:07;;;;;;;2.72;1.42;;;10.40;99.90;;;;;;5072058;28;20472;-58
2023/01/11 03:55:35;;;;;;;2.25;1.42;;;10.40;99.90;;;;;;5048256;28;20052;-59
2023/01/11 03:58:02;;;;;;;1.67;1.48;;;10.40;99.90;;;;;;5064641;28;20136;-48
2023/01/11 04:00:29;;;;;;;2.63;1.30;;;10.40;99.90;;;;;;5067371;28;20150;-58
2023/01/11 04:02:59;;;;;;;1.92;1.27;;;10.50;99.90;;;;;;5053966;28;20080;-52
2023/01/11 04:05:26;;;;;;;2.92;1.30;;;10.50;99.90;;;;;;5041970;28;20136;-57
2023/01/11 04:07:52;;;;;;;2.97;1.20;;;10.50;99.90;;;;;;5069015;28;20056;-58
2023/01/11 04:10:19;;;;;;;2.88;1.30;;;10.50;99.90;;;;;;5045134;28;20129;-57
2023/01/11 04:12:46;;;;;;;1.60;1.20;;;10.50;99.90;;;;;;5034730;28;20061;-57
2023/01/11 04:15:13;;;;;;;2.42;1.25;;;10.50;99.90;;;;;;5060226;28;20095;-57
2023/01/11 04:17:40;;;;;;;2.85;1.60;;;10.50;99.90;;;;;;5068582;28;20102;-53
2023/01/11 04:20:10;;;;;;;3.17;1.60;;;10.60;99.90;;;;;;5071118;28;20090;-56
2023/01/11 04:22:37;;;;;;;3.25;1.90;;;10.60;99.90;;;;;;5071107;28;20086;-56
2023/01/11 04:25:04;;;;;;;5.00;2.47;;;10.60;99.90;;;;;;5053444;28;20088;-53
2023/01/11 04:27:31;;;;;;;6.47;2.80;;;10.60;99.90;;;;;;5050797;28;20138;-54
2023/01/11 04:29:57;;;;;;;9.95;3.13;;;10.70;99.90;;;;;;5068176;28;20048;-52
2023/01/11 04:32:24;;;;;;;7.32;3.33;;;10.70;99.90;;;;;;5048863;28;20136;-49
2023/01/11 04:34:51;;;;;;;11.20;3.45;;;10.70;99.90;;;;;;5067520;28;20060;-50
2023/01/11 04:37:19;;;;;;;8.35;3.60;;;10.70;99.90;;;;;;5055889;28;20178;-53
2023/01/11 04:39:46;;;;;;;14.48;4.45;;;10.80;99.90;;;;;;5068464;28;20118;-51
2023/01/11 04:42:18;;;;;;;13.45;4.05;;;10.80;99.90;;;;;;5051605;28;20045;-56
2023/01/11 04:44:45;;;;;;;12.30;3.83;;;10.80;99.90;;;;;;5068559;28;20048;-55
2023/01/11 04:47:11;;;;;;;15.25;4.40;;;10.80;99.90;;;;;;5051565;28;20052;-53
2023/01/11 04:49:38;;;;;;;22.38;4.35;;;10.80;99.90;;;;;;5071983;28;20048;-51
2023/01/11 04:52:05;;;;;;;15.98;4.30;;;10.80;99.90;;;;;;5063694;28;20076;-56
2023/01/11 04:54:33;;;;;;;19.80;4.53;;;10.80;99.90;;;;;;5052474;28;20110;-55
2023/01/11 04:57:00;;;;;;;17.85;4.53;;;10.80;99.90;;;;;;5068680;28;20521;-56
2023/01/11 04:59:27;;;;;;;17.83;4.63;;;10.80;99.90;;;;;;5070608;28;20847;-56
2023/01/11 05:01:54;;;;;;;24.00;5.78;;;10.90;99.90;;;;;;5065948;28;20124;-57
2023/01/11 05:04:20;;;;;;;22.15;4.65;;;10.90;99.90;;;;;;5052183;28;20048;-57
2023/01/11 05:06:47;;;;;;;24.40;4.53;;;10.90;99.90;;;;;;5054285;28;20440;-52
2023/01/11 05:09:15;;;;;;;30.52;4.55;;;10.90;99.90;;;;;;5054820;28;20080;-57
2023/01/11 05:11:43;;;;;;;20.35;3.88;;;10.90;99.90;;;;;;5067913;28;20080;-57
2023/01/11 05:14:10;;;;;;;30.55;4.43;;;10.90;99.90;;;;;;5051494;28;20127;-53
2023/01/11 05:16:37;;;;;;;31.80;4.40;;;10.90;99.90;;;;;;5056832;28;20072;-56
2023/01/11 05:19:05;;;;;;;26.55;4.63;;;10.90;99.90;;;;;;5056856;28;20079;-57
2023/01/11 05:21:32;;;;;;;36.05;4.38;;;10.90;99.90;;;;;;5055371;28;20472;-53
2023/01/11 05:23:59;;;;;;;36.00;4.20;;;10.90;99.90;;;;;;5050890;28;20084;-58
2023/01/11 05:26:27;;;;;;;34.63;4.38;;;10.90;99.90;;;;;;5051661;28;20056;-57
2023/01/11 05:28:56;;;;;;;31.70;4.80;;;10.80;99.90;;;;;;5074566;28;20510;-57
2023/01/11 05:31:23;;;;;;;34.42;4.70;;;10.80;99.90;;;;;;5073210;28;20131;-57
2023/01/11 05:33:49;;;;;;;27.83;4.78;;;10.80;99.90;;;;;;5073827;28;20466;-56
2023/01/11 05:36:17;;;;;;;29.13;4.68;;;10.80;99.90;;;;;;5044034;28;20124;-49
2023/01/11 05:38:45;;;;;;;38.05;5.07;;;10.80;99.90;;;;;;5055394;28;20049;-58
2023/01/11 05:41:12;;;;;;;31.83;5.30;;;10.80;99.90;;;;;;5056074;28;20052;-55
2023/01/11 05:45:27;;;;;;;39.92;5.10;;;10.80;99.90;;;;;;5074796;28;20174;-54
2023/01/11 05:46:26;;;;;;;39.17;4.90;;;10.80;99.90;;;;;;5047647;28;20053;-50
2023/01/11 05:48:54;;;;;;;26.80;4.60;;;10.80;99.90;;;;;;5073219;28;20054;-57
2023/01/11 05:51:21;;;;;;;39.90;4.28;;;10.80;99.90;;;;;;5074930;28;20076;-56
2023/01/11 05:53:48;;;;;;;36.65;4.63;;;10.70;99.90;;;;;;5044874;28;20487;-56
2023/01/11 05:56:15;;;;;;;38.58;5.13;;;10.70;99.90;;;;;;5054120;28;20057;-55
2023/01/11 05:58:41;;;;;;;42.38;5.63;;;10.70;99.90;;;;;;5073494;28;20060;-57
2023/01/11 06:01:08;;;;;;;32.08;4.90;;;10.70;99.90;;;;;;5070525;28;20076;-55
2023/01/11 06:03:36;;;;;;;32.35;4.70;;;10.70;99.90;;;;;;5050313;28;20583;-56
2023/01/11 06:06:03;;;;;;;38.20;5.50;;;10.70;99.90;;;;;;5051670;28;20068;-55
2023/01/11 06:08:30;;;;;;;36.58;5.78;;;10.70;99.90;;;;;;5054875;28;20095;-55
2023/01/11 06:10:57;;;;;;;34.80;4.72;;;10.70;99.90;;;;;;5072562;28;20107;-56
2023/01/11 06:13:27;;;;;;;40.22;4.43;;;10.70;99.90;;;;;;5056802;28;20139;-56
2023/01/11 06:15:53;;;;;;;36.85;4.45;;;10.70;99.90;;;;;;5065247;28;20086;-54
2023/01/11 06:18:20;;;;;;;37.17;5.45;;;10.70;99.90;;;;;;5046001;28;20418;-55
2023/01/11 06:20:50;;;;;;;42.60;4.72;;;10.60;99.90;;;;;;5047678;28;20397;-55
2023/01/11 06:23:17;;;;;;;37.65;5.68;;;10.70;99.90;;;;;;5061979;28;20129;-55
2023/01/11 06:25:44;;;;;;;29.88;4.82;;;10.70;99.90;;;;;;5063670;28;20127;-55
2023/01/11 06:28:10;;;;;;;34.10;6.07;;;10.60;99.90;;;;;;5058776;28;20048;-52
2023/01/11 06:30:37;;;;;;;34.67;4.60;;;10.60;99.90;;;;;;5063306;28;20102;-56
2023/01/11 06:33:05;;;;;;;35.08;5.03;;;10.60;99.90;;;;;;5072313;28;20476;-56
2023/01/11 06:35:32;;;;;;;39.55;5.63;;;10.50;99.90;;;;;;5046538;28;20136;-48
2023/01/11 06:38:00;;;;;;;27.52;4.30;;;10.50;99.90;;;;;;5070279;28;20055;-54
2023/01/11 06:40:28;;;;;;;35.05;5.05;;;10.50;99.90;;;;;;5049025;28;20117;-52
2023/01/11 06:42:55;;;;;;;33.88;5.03;;;10.50;99.90;;;;;;5049254;28;20088;-54
2023/01/11 06:45:21;;;;;;;31.48;4.53;;;10.40;99.90;;;;;;5066247;28;20435;-56
2023/01/11 06:47:48;;;;;;;35.55;5.00;;;10.40;99.90;;;;;;5071029;28;20083;-50
2023/01/11 06:50:16;;;;;;;35.58;4.47;;;10.40;99.90;;;;;;5050319;28;20135;-56
2023/01/11 06:52:43;;;;;;;35.00;4.63;;;10.40;99.90;;;;;;5041595;28;20500;-55
2023/01/11 06:55:11;;;;;;;29.80;4.68;;;10.30;99.90;;;;;;5064034;28;20052;-55
2023/01/11 06:57:38;;;;;;;35.30;4.95;;;10.30;99.90;;;;;;5050711;28;20065;-55
2023/01/11 07:00:05;;;;;;;40.45;6.28;;;10.30;99.90;;;;;;5068721;28;20049;-53
2023/01/11 07:02:32;;;;;;;40.70;5.40;;;10.30;99.90;;;;;;5064530;28;20107;-56
2023/01/11 07:04:59;;;;;;;38.70;5.35;;;10.30;99.90;;;;;;5039526;28;20060;-52
2023/01/11 07:07:26;;;;;;;37.85;5.45;;;10.20;99.90;;;;;;5070707;28;20052;-55
2023/01/11 07:09:53;;;;;;;31.00;5.03;;;10.20;99.90;;;;;;5055334;28;20080;-53
2023/01/11 07:12:21;;;;;;;43.80;5.50;;;10.20;99.90;;;;;;5055357;28;20063;-55
2023/01/11 07:14:48;;;;;;;41.60;5.05;;;10.20;99.90;;;;;;5073471;28;20484;-47
2023/01/11 07:17:15;;;;;;;42.70;5.70;;;10.20;99.90;;;;;;5051111;28;20045;-56
2023/01/11 07:19:41;;;;;;;36.95;5.40;;;10.10;99.90;;;;;;5054857;28;20392;-56
2023/01/11 07:22:08;;;;;;;41.33;5.93;;;10.10;99.90;;;;;;5055512;28;20080;-56
2023/01/11 07:24:35;;;;;;;37.22;4.85;;;10.10;99.90;;;;;;5073038;28;20049;-55
2023/01/11 07:27:02;;;;;;;52.55;6.43;;;10.10;99.90;;;;;;5054766;28;20052;-55
2023/01/11 07:29:30;;;;;;;50.47;5.47;;;10.10;99.90;;;;;;5054293;28;20102;-55
2023/01/11 07:31:57;;;;;;;45.00;5.95;;;10.10;99.90;;;;;;5072990;28;20060;-55
2023/01/11 07:34:24;;;;;;;46.20;5.50;;;10.10;99.90;;;;;;5073042;28;20056;-55
2023/01/11 07:36:51;;;;;;;54.45;6.43;;;10.10;99.90;;;;;;5073017;28;20066;-54
2023/01/11 07:39:17;;;;;;;44.45;6.40;;;10.10;99.90;;;;;;5054752;28;20430;-54
2023/01/11 07:44:30;;;;;;;36.35;5.35;;;10.10;99.90;;;;;;5055485;28;20053;-55
2023/01/11 07:46:57;;;;;;;33.85;4.32;;;10.00;99.90;;;;;;5054757;28;20094;-56
2023/01/11 07:49:24;;;;;;;35.00;4.88;;;10.00;99.90;;;;;;5053383;28;20137;-56
2023/01/11 07:51:51;;;;;;;35.70;4.85;;;10.00;99.90;;;;;;5072649;28;20128;-50
2023/01/11 07:54:18;;;;;;;38.60;6.20;;;10.10;99.90;;;;;;5054948;28;20502;-56
2023/01/11 07:56:45;;;;;;;36.42;5.75;;;10.00;99.90;;;;;;5055325;28;20056;-54
2023/01/11 07:59:12;;;;;;;31.70;5.50;;;10.00;99.90;;;;;;5053019;28;20084;-53
2023/01/11 08:01:40;;;;;;;40.97;5.53;;;9.90;99.90;;;;;;5054700;28;20052;-56
2023/01/11 08:04:07;;;;;;;45.90;5.05;;;9.90;99.90;;;;;;5072557;28;20074;-55
2023/01/11 08:06:34;;;;;;;35.45;4.75;;;9.80;99.90;;;;;;5072618;28;20054;-54
2023/01/11 08:09:00;;;;;;;41.30;5.38;;;9.80;99.90;;;;;;5054141;28;20048;-53
2023/01/11 08:16:57;;;;;;;31.33;4.22;;;9.70;99.90;;;;;;5054674;28;20373;-55
2023/01/11 08:19:24;;;;;;;27.20;4.38;;;9.70;99.90;;;;;;5069633;28;20048;-55
2023/01/11 08:21:51;;;;;;;32.33;3.92;;;9.60;99.90;;;;;;5055038;28;20052;-54
2023/01/11 08:24:18;;;;;;;28.58;3.67;;;9.50;99.90;;;;;;5054633;28;20106;-55
2023/01/11 08:26:45;;;;;;;20.50;3.35;;;9.50;99.90;;;;;;5054822;28;20074;-56
2023/01/11 08:29:12;;;;;;;23.75;3.30;;;9.50;99.90;;;;;;5071514;28;20057;-56
2023/01/11 08:31:38;;;;;;;23.63;3.60;;;9.50;99.90;;;;;;5071679;28;20541;-56
2023/01/11 08:34:06;;;;;;;19.15;2.92;;;9.40;99.90;;;;;;5054893;28;20657;-55
2023/01/11 08:36:33;;;;;;;27.50;5.75;;;9.40;99.90;;;;;;5054804;28;20084;-54
2023/01/11 08:39:00;;;;;;;39.40;12.10;;;9.40;99.90;;;;;;5070780;28;20049;-55
2023/01/11 08:41:27;;;;;;;29.95;6.65;;;9.30;99.90;;;;;;5074420;28;20132;-55
2023/01/11 08:43:54;;;;;;;24.13;5.00;;;9.30;99.90;;;;;;5076217;28;20500;-53
2023/01/11 08:46:20;;;;;;;20.95;4.20;;;9.30;99.90;;;;;;5058610;28;20143;-56
2023/01/11 08:48:47;;;;;;;21.52;3.67;;;9.30;99.90;;;;;;5056367;28;20056;-55
2023/01/11 08:51:16;;;;;;;22.42;3.30;;;9.30;99.90;;;;;;5076274;28;20090;-56
2023/01/11 08:53:43;;;;;;;16.05;2.58;;;9.20;99.90;;;;;;5076247;28;20048;-56
2023/01/11 08:56:10;;;;;;;18.25;2.95;;;9.20;99.90;;;;;;5076090;28;20103;-56
2023/01/11 08:58:37;;;;;;;22.70;3.45;;;9.30;99.90;;;;;;5073917;28;20087;-56
2023/01/11 09:01:07;;;;;;;17.02;3.13;;;9.20;99.90;;;;;;5057959;28;20052;-55
2023/01/11 09:03:34;;;;;;;24.65;3.58;;;9.20;99.90;;;;;;5076076;28;20142;-57
2023/01/11 09:06:01;;;;;;;18.45;3.65;;;9.20;99.90;;;;;;5058483;28;20060;-57
2023/01/11 09:08:29;;;;;;;23.20;3.20;;;9.20;99.90;;;;;;5074633;28;20107;-55
2023/01/11 09:10:58;;;;;;;16.83;2.97;;;9.20;99.90;;;;;;5075827;28;20098;-56
2023/01/11 09:13:25;;;;;;;25.17;3.45;;;9.10;99.90;;;;;;5075768;28;20106;-56
2023/01/11 09:15:55;;;;;;;21.90;3.22;;;9.10;99.90;;;;;;5057570;28;20566;-56
2023/01/11 09:18:22;;;;;;;21.77;3.63;;;9.10;99.90;;;;;;5073766;28;20052;-56
2023/01/11 09:20:51;;;;;;;26.52;3.50;;;9.10;99.90;;;;;;5058111;28;20102;-56
2023/01/11 09:23:17;;;;;;;18.02;3.17;;;9.10;99.90;;;;;;5057933;28;20067;-50
2023/01/11 09:25:45;;;;;;;24.70;3.28;;;9.10;99.90;;;;;;5075628;28;20084;-55
2023/01/11 09:28:12;;;;;;;21.85;3.78;;;9.10;99.90;;;;;;5055560;28;20087;-51
2023/01/11 09:30:39;;;;;;;33.15;4.13;;;9.10;99.90;;;;;;5057624;28;20518;-56
2023/01/11 09:33:06;;;;;;;22.88;3.97;;;9.10;99.90;;;;;;5073825;28;20478;-56
2023/01/11 09:35:34;;;;;;;25.45;3.72;;;9.10;99.90;;;;;;5075560;28;20048;-55
2023/01/11 09:38:01;;;;;;;26.05;4.28;;;9.10;99.90;;;;;;5057664;28;20529;-54
2023/01/11 09:40:32;;;;;;;17.90;3.85;;;9.10;99.90;;;;;;5073786;28;20080;-55
2023/01/11 09:43:03;;;;;;;26.88;3.20;;;9.10;99.90;;;;;;5074929;28;20132;-56
2023/01/11 09:45:31;;;;;;;26.17;4.45;;;9.10;99.90;;;;;;5075275;28;20145;-56
2023/01/11 09:48:03;;;;;;;26.73;4.45;;;9.20;99.90;;;;;;5075407;28;20044;-56
2023/01/11 09:50:31;;;;;;;24.10;3.85;;;9.20;99.90;;;;;;5056935;28;20079;-54
2023/01/11 09:52:59;;;;;;;31.50;3.90;;;9.30;99.90;;;;;;5066453;28;20103;-56
2023/01/11 09:55:30;;;;;;;25.40;3.25;;;9.30;99.90;;;;;;5055160;28;20095;-56
2023/01/11 09:58:15;;;;;;;20.48;3.45;;;9.30;99.90;;;;;;5054790;28;20140;-55
2023/01/11 10:00:49;;;;;;;27.80;4.53;;;9.40;99.90;;;;;;5075522;28;20078;-56
2023/01/11 10:03:35;;;;;;;32.38;4.18;;;9.50;99.90;;;;;;5075240;28;20139;-56
2023/01/11 10:06:08;;;;;;;24.08;4.20;;;9.50;99.90;;;;;;5073401;28;20102;-57
2023/01/11 10:09:02;;;;;;;26.67;3.90;;;9.60;99.90;;;;;;5054161;28;20059;-56
2023/01/11 10:11:34;;;;;;;30.30;4.32;;;9.70;99.90;;;;;;5072289;28;20492;-57
2023/01/11 10:14:06;;;;;;;29.15;4.00;;;9.70;99.90;;;;;;5056845;28;20059;-55
2023/01/11 10:16:38;;;;;;;21.50;4.10;;;9.70;99.90;;;;;;5057440;28;20045;-56
2023/01/11 10:19:12;;;;;;;27.40;3.78;;;9.70;99.90;;;;;;5056206;28;20088;-53
2023/01/11 10:21:42;;;;;;;22.63;3.25;;;9.80;99.90;;;;;;5075148;28;20048;-56
2023/01/11 10:24:13;;;;;;;21.83;3.42;;;9.80;99.90;;;;;;5074705;28;20102;-57
2023/01/11 10:26:40;;;;;;;28.52;4.28;;;9.90;99.90;;;;;;5056776;28;20144;-57
2023/01/11 10:29:37;;;;;;;30.83;4.90;;;9.90;99.90;;;;;;5073174;28;20135;-53
2023/01/11 10:32:17;;;;;;;31.92;4.20;;;9.90;99.90;;;;;;5056388;28;20056;-56
2023/01/11 10:34:59;;;;;;;19.80;3.80;;;9.90;99.90;;;;;;5056893;28;20059;-57
2023/01/11 10:37:48;;;;;;;26.95;4.30;;;9.90;99.90;;;;;;5071038;28;20049;-56
2023/01/11 10:40:33;;;;;;;29.77;4.22;;;9.90;99.90;;;;;;5074710;28;20110;-55
2023/01/11 10:43:03;;;;;;;28.88;4.75;;;9.90;99.90;;;;;;5056722;28;20143;-55
2023/01/11 10:45:36;;;;;;;25.15;4.43;;;10.00;99.90;;;;;;5073576;28;20135;-50
2023/01/11 10:48:04;;;;;;;24.80;4.00;;;10.00;99.90;;;;;;5053997;28;20497;-49
2023/01/11 10:50:36;;;;;;;29.60;4.53;;;10.10;99.90;;;;;;5053814;28;20049;-56
2023/01/11 10:53:06;;;;;;;27.08;4.43;;;10.10;99.90;;;;;;5036208;28;20049;-54
2023/01/11 10:55:38;;;;;;;34.47;4.82;;;10.20;99.90;;;;;;5053227;28;20041;-51
2023/01/11 10:58:07;;;;;;;;;;;10.20;99.90;;;;;;5054296;28;20045;-55
2023/01/11 11:00:38;;;;;;;28.27;4.00;;;10.30;99.90;;;;;;5053835;28;19920;-56
2023/01/11 11:03:32;;;;;;;22.38;4.30;;;10.30;99.90;;;;;;5052783;28;20053;-54
2023/01/11 11:06:00;;;;;;;24.25;4.70;;;10.30;99.90;;;;;;5031409;28;20049;-54
2023/01/11 11:08:28;;;;;;;28.70;4.18;;;10.30;99.90;;;;;;5056057;28;20048;-56
2023/01/11 11:10:58;;;;;;;24.17;3.72;;;10.40;99.90;;;;;;5055863;28;20127;-56
2023/01/11 11:13:34;;;;;;;26.20;3.97;;;10.40;99.90;;;;;;5051687;28;20460;-56
2023/01/11 11:16:03;;;;;;;22.80;3.97;;;10.40;99.90;;;;;;5073593;28;20102;-52
2023/01/11 11:18:30;;;;;;;27.42;3.92;;;10.30;99.90;;;;;;5073585;28;20110;-56
2023/01/11 11:20:57;;;;;;;28.08;4.28;;;10.30;99.90;;;;;;5055889;28;20079;-56
2023/01/11 11:23:24;;;;;;;28.17;4.75;;;10.30;99.90;;;;;;5071815;28;20119;-57
2023/01/11 11:25:54;;;;;;;24.02;3.78;;;10.20;99.90;;;;;;5055399;28;20674;-55
2023/01/11 11:28:25;;;;;;;22.02;3.30;;;10.20;99.90;;;;;;5055335;28;20094;-55
2023/01/11 11:30:53;;;;;;;23.75;3.42;;;10.10;99.90;;;;;;5055558;28;20064;-56
2023/01/11 11:33:22;;;;;;;20.48;3.13;;;10.10;99.90;;;;;;5071127;28;20118;-56
2023/01/11 11:35:55;;;;;;;23.20;3.25;;;10.00;99.90;;;;;;5055769;28;20114;-56
2023/01/11 11:38:23;;;;;;;30.90;4.35;;;10.10;99.90;;;;;;5073131;28;20135;-57
2023/01/11 11:40:56;;;;;;;24.17;3.95;;;10.10;99.90;;;;;;5072694;28;20081;-57
2023/01/11 11:43:24;;;;;;;26.52;3.53;;;10.10;99.90;;;;;;5071305;28;20045;-50
2023/01/11 11:45:52;;;;;;;23.58;3.80;;;10.20;99.90;;;;;;5073071;28;20446;-56
2023/01/11 11:48:20;;;;;;;26.15;4.10;;;10.20;99.90;;;;;;5054752;28;20090;-54
2023/01/11 11:50:47;;;;;;;27.55;4.18;;;10.20;99.90;;;;;;5054916;28;20467;-56
2023/01/11 11:53:29;;;;;;;22.77;3.33;;;10.30;99.90;;;;;;5052516;28;20156;-56
2023/01/11 11:55:56;;;;;;;;;;;10.40;99.90;;;;;;5055911;28;20103;-56
2023/01/11 11:58:24;;;;;;;23.58;3.70;;;10.30;99.90;;;;;;5054846;28;20011;-55
2023/01/11 12:00:51;;;;;;;23.55;3.50;;;10.30;99.90;;;;;;5072639;28;20533;-56
2023/01/11 12:03:19;;;;;;;28.55;4.07;;;10.20;99.90;;;;;;5071135;28;20500;-55
2023/01/11 12:05:52;;;;;;;29.52;4.53;;;10.30;99.90;;;;;;5054635;28;20091;-53
2023/01/11 12:08:18;;;;;;;22.30;3.50;;;10.30;99.90;;;;;;5054619;28;20092;-56
2023/01/11 12:10:50;;;;;;;26.85;3.85;;;10.40;99.90;;;;;;5054620;28;20121;-56
2023/01/11 12:13:28;;;;;;;22.73;3.80;;;10.40;99.90;;;;;;5053943;28;20087;-56
2023/01/11 12:15:56;;;;;;;22.70;3.88;;;10.40;99.90;;;;;;5054698;28;20153;-56
2023/01/11 12:18:24;;;;;;;26.92;3.97;;;10.40;99.90;;;;;;5054690;28;20080;-56
2023/01/11 12:20:52;;;;;;;26.15;4.55;;;10.40;99.90;;;;;;5072204;28;20063;-54
2023/01/11 12:23:22;;;;;;;25.38;4.03;;;10.30;99.90;;;;;;5054329;28;20083;-55
2023/01/11 12:26:04;;;;;;;29.80;4.50;;;10.30;99.90;;;;;;5070509;28;20135;-56
2023/01/11 12:28:41;;;;;;;31.55;4.07;;;10.30;99.90;;;;;;5054662;28;20091;-53
2023/01/11 12:31:10;;;;;;;28.30;4.43;;;10.20;99.90;;;;;;5072071;28;20048;-51
2023/01/11 12:33:42;;;;;;;30.05;4.07;;;10.20;99.90;;;;;;5071608;28;20072;-56
2023/01/11 12:36:12;;;;;;;28.52;4.65;;;10.30;99.90;;;;;;5071824;28;20092;-44
2023/01/11 12:38:39;;;;;;;20.98;3.33;;;10.30;99.90;;;;;;5069604;28;20105;-50
2023/01/11 12:41:46;;;;;;;24.27;4.15;;;10.30;99.90;;;;;;5067896;28;20044;-55
2023/01/11 12:44:15;;;;;;;26.55;4.07;;;10.30;99.90;;;;;;5070454;28;20059;-55
2023/01/11 12:46:50;;;;;;;24.02;4.20;;;10.20;99.90;;;;;;5054618;28;20151;-54
2023/01/11 12:49:23;;;;;;;25.52;4.32;;;10.20;99.90;;;;;;5071982;28;20087;-56
2023/01/11 12:52:01;;;;;;;30.52;4.22;;;10.20;99.90;;;;;;5070832;28;20139;-55
2023/01/11 12:54:39;;;;;;;33.75;5.25;;;10.20;99.90;;;;;;5054138;28;20079;-57
2023/01/11 12:57:20;;;;;;;29.05;3.90;;;10.20;99.90;;;;;;5071143;28;20484;-57
2023/01/11 13:00:07;;;;;;;38.22;4.82;;;10.30;99.90;;;;;;5069420;28;20077;-56
2023/01/11 13:02:42;;;;;;;32.03;4.22;;;10.30;99.90;;;;;;5068685;28;20058;-51
2023/01/11 13:05:16;;;;;;;30.13;4.22;;;10.20;99.90;;;;;;5072357;28;20492;-56
2023/01/11 13:07:49;;;;;;;25.63;4.32;;;10.20;99.90;;;;;;5070602;28;20083;-56
2023/01/11 13:10:22;;;;;;;20.92;3.88;;;10.20;99.90;;;;;;5054395;28;20083;-56
2023/01/11 13:12:51;;;;;;;33.45;4.43;;;10.20;99.90;;;;;;5054003;28;20492;-54
2023/01/11 13:15:31;;;;;;;31.70;4.35;;;10.20;99.90;;;;;;5054202;28;20136;-56
2023/01/11 13:18:00;;;;;;;33.42;4.65;;;10.30;99.90;;;;;;5067756;28;20086;-56
2023/01/11 13:20:33;;;;;;;30.35;4.85;;;10.30;99.90;;;;;;5069678;28;20052;-55